sensor_id;sensor_type;location;lat;lon;timestamp;pressure;altitude;pressure_sealevel;temperature;humidity
69980;BME280;57318;56.232;43.944;2023-04-08T00:01:53;100501.09;;;0.86;44.49
69980;BME280;57318;56.232;43.944;2023-04-08T00:04:19;100504.59;;;0.85;44.75
69980;BME280;57318;56.232;43.944;2023-04-08T00:06:45;100498.59;;;0.81;44.39
69980;BME280;57318;56.232;43.944;2023-04-08T00:09:11;100500.41;;;0.78;44.48
69980;BME280;57318;56.232;43.944;2023-04-08T00:11:36;100498.72;;;0.75;44.85
69980;BME280;57318;56.232;43.944;2023-04-08T00:14:03;100497.94;;;0.71;44.96
69980;BME280;57318;56.232;43.944;2023-04-08T00:16:29;100495.38;;;0.68;44.89
69980;BME280;57318;56.232;43.944;2023-04-08T00:18:54;100499.75;;;0.69;44.95
69980;BME280;57318;56.232;43.944;2023-04-08T00:21:21;100505.84;;;0.68;44.74
69980;BME280;57318;56.232;43.944;2023-04-08T00:23:47;100499.88;;;0.63;44.87
69980;BME280;57318;56.232;43.944;2023-04-08T00:26:13;100510.34;;;0.63;44.91
69980;BME280;57318;56.232;43.944;2023-04-08T00:28:39;100506.97;;;0.57;45.15
69980;BME280;57318;56.232;43.944;2023-04-08T00:31:05;100496.56;;;0.55;45.06
69980;BME280;57318;56.232;43.944;2023-04-08T00:33:31;100501.88;;;0.52;45.37
69980;BME280;57318;56.232;43.944;2023-04-08T00:35:57;100502.75;;;0.51;45.25
69980;BME280;57318;56.232;43.944;2023-04-08T00:38:22;100495.88;;;0.45;45.60
69980;BME280;57318;56.232;43.944;2023-04-08T00:40:48;100493.38;;;0.41;45.48
69980;BME280;57318;56.232;43.944;2023-04-08T00:43:14;100496.09;;;0.36;45.59
69980;BME280;57318;56.232;43.944;2023-04-08T00:45:41;100497.91;;;0.32;45.76
69980;BME280;57318;56.232;43.944;2023-04-08T00:48:06;100498.81;;;0.30;46.19
69980;BME280;57318;56.232;43.944;2023-04-08T00:50:32;100485.84;;;0.27;46.08
69980;BME280;57318;56.232;43.944;2023-04-08T00:52:58;100489.38;;;0.24;46.21
69980;BME280;57318;56.232;43.944;2023-04-08T00:55:23;100489.47;;;0.20;46.47
69980;BME280;57318;56.232;43.944;2023-04-08T00:57:49;100497.41;;;0.15;46.66
69980;BME280;57318;56.232;43.944;2023-04-08T01:00:15;100493.06;;;0.14;46.79
69980;BME280;57318;56.232;43.944;2023-04-08T01:03:07;100493.09;;;0.11;46.62
69980;BME280;57318;56.232;43.944;2023-04-08T01:05:59;100498.47;;;0.05;47.02
69980;BME280;57318;56.232;43.944;2023-04-08T01:08:32;100496.75;;;0.04;46.68
69980;BME280;57318;56.232;43.944;2023-04-08T01:11:01;100495.91;;;0.02;46.69
69980;BME280;57318;56.232;43.944;2023-04-08T01:13:30;100489.91;;;-0.04;47.00
69980;BME280;57318;56.232;43.944;2023-04-08T01:16:00;100490.88;;;-0.08;47.42
69980;BME280;57318;56.232;43.944;2023-04-08T01:18:25;100499.66;;;-0.12;47.19
69980;BME280;57318;56.232;43.944;2023-04-08T01:20:53;100499.75;;;-0.16;47.74
69980;BME280;57318;56.232;43.944;2023-04-08T01:23:28;100500.63;;;-0.17;47.84
69980;BME280;57318;56.232;43.944;2023-04-08T01:25:57;100503.28;;;-0.21;47.51
69980;BME280;57318;56.232;43.944;2023-04-08T01:28:26;100500.72;;;-0.22;47.73
69980;BME280;57318;56.232;43.944;2023-04-08T01:30:54;100502.53;;;-0.26;47.99
69980;BME280;57318;56.232;43.944;2023-04-08T01:33:21;100499.06;;;-0.26;47.89
69980;BME280;57318;56.232;43.944;2023-04-08T01:35:47;100497.34;;;-0.29;48.10
69980;BME280;57318;56.232;43.944;2023-04-08T01:38:17;100497.34;;;-0.29;47.76
69980;BME280;57318;56.232;43.944;2023-04-08T01:40:45;100504.41;;;-0.32;47.69
69980;BME280;57318;56.232;43.944;2023-04-08T01:43:13;100502.66;;;-0.33;47.82
69980;BME280;57318;56.232;43.944;2023-04-08T01:45:45;100502.69;;;-0.35;47.91
69980;BME280;57318;56.232;43.944;2023-04-08T01:48:12;100502.72;;;-0.37;48.13
69980;BME280;57318;56.232;43.944;2023-04-08T01:50:40;100507.97;;;-0.38;48.14
69980;BME280;57318;56.232;43.944;2023-04-08T01:53:08;100502.78;;;-0.40;48.16
69980;BME280;57318;56.232;43.944;2023-04-08T01:55:36;100503.69;;;-0.41;48.12
69980;BME280;57318;56.232;43.944;2023-04-08T01:58:04;100505.44;;;-0.43;48.68
69980;BME280;57318;56.232;43.944;2023-04-08T02:00:32;100508.03;;;-0.43;48.30
69980;BME280;57318;56.232;43.944;2023-04-08T02:02:59;100520.31;;;-0.46;48.45
69980;BME280;57318;56.232;43.944;2023-04-08T02:05:25;100520.28;;;-0.45;48.65
69980;BME280;57318;56.232;43.944;2023-04-08T02:07:52;100515.97;;;-0.49;48.73
69980;BME280;57318;56.232;43.944;2023-04-08T02:10:17;100517.78;;;-0.51;48.75
69980;BME280;57318;56.232;43.944;2023-04-08T02:12:44;100516.94;;;-0.53;48.95
69980;BME280;57318;56.232;43.944;2023-04-08T02:15:11;100518.66;;;-0.52;48.86
69980;BME280;57318;56.232;43.944;2023-04-08T02:17:44;100523.00;;;-0.51;49.03
69980;BME280;57318;56.232;43.944;2023-04-08T02:20:23;100525.56;;;-0.49;48.73
69980;BME280;57318;56.232;43.944;2023-04-08T02:25:28;100522.97;;;-0.49;48.81
69980;BME280;57318;56.232;43.944;2023-04-08T02:27:55;100524.69;;;-0.48;48.72
69980;BME280;57318;56.232;43.944;2023-04-08T02:30:21;100531.59;;;-0.46;49.04
69980;BME280;57318;56.232;43.944;2023-04-08T02:32:48;100526.38;;;-0.46;49.00
69980;BME280;57318;56.232;43.944;2023-04-08T02:35:14;100532.47;;;-0.45;48.89
69980;BME280;57318;56.232;43.944;2023-04-08T02:37:40;100530.72;;;-0.45;48.60
69980;BME280;57318;56.232;43.944;2023-04-08T02:40:31;100533.28;;;-0.42;48.63
69980;BME280;57318;56.232;43.944;2023-04-08T02:42:58;100539.31;;;-0.38;48.54
69980;BME280;57318;56.232;43.944;2023-04-08T02:45:27;100535.75;;;-0.34;48.52
69980;BME280;57318;56.232;43.944;2023-04-08T02:47:54;100527.06;;;-0.34;48.33
69980;BME280;57318;56.232;43.944;2023-04-08T02:50:20;100529.63;;;-0.30;48.33
69980;BME280;57318;56.232;43.944;2023-04-08T02:52:45;100533.84;;;-0.24;48.26
69980;BME280;57318;56.232;43.944;2023-04-08T02:55:11;100532.06;;;-0.22;48.12
69980;BME280;57318;56.232;43.944;2023-04-08T02:57:39;100541.50;;;-0.15;48.02
69980;BME280;57318;56.232;43.944;2023-04-08T03:00:06;100535.38;;;-0.12;47.83
69980;BME280;57318;56.232;43.944;2023-04-08T03:02:32;100539.63;;;-0.07;47.86
69980;BME280;57318;56.232;43.944;2023-04-08T03:04:57;100535.19;;;-0.02;47.66
69980;BME280;57318;56.232;43.944;2023-04-08T03:07:23;100542.09;;;0.01;47.39
69980;BME280;57318;56.232;43.944;2023-04-08T03:09:49;100538.53;;;0.05;47.40
69980;BME280;57318;56.232;43.944;2023-04-08T03:12:15;100540.19;;;0.09;47.45
69980;BME280;57318;56.232;43.944;2023-04-08T03:14:40;100540.09;;;0.14;47.12
69980;BME280;57318;56.232;43.944;2023-04-08T03:17:06;100538.34;;;0.16;47.38
69980;BME280;57318;56.232;43.944;2023-04-08T03:19:32;100539.16;;;0.18;47.05
69980;BME280;57318;56.232;43.944;2023-04-08T03:21:57;100538.28;;;0.19;47.21
69980;BME280;57318;56.232;43.944;2023-04-08T03:24:23;100546.06;;;0.22;47.01
69980;BME280;57318;56.232;43.944;2023-04-08T03:26:49;100546.06;;;0.22;47.06
69980;BME280;57318;56.232;43.944;2023-04-08T03:29:14;100543.44;;;0.22;46.98
69980;BME280;57318;56.232;43.944;2023-04-08T03:31:40;100547.72;;;0.25;46.89
69980;BME280;57318;56.232;43.944;2023-04-08T03:34:06;100545.09;;;0.26;46.83
69980;BME280;57318;56.232;43.944;2023-04-08T03:36:31;100550.28;;;0.28;46.69
69980;BME280;57318;56.232;43.944;2023-04-08T03:38:57;100550.19;;;0.32;46.88
69980;BME280;57318;56.232;43.944;2023-04-08T03:41:22;100549.25;;;0.37;46.61
69980;BME280;57318;56.232;43.944;2023-04-08T03:43:48;100551.81;;;0.40;46.84
69980;BME280;57318;56.232;43.944;2023-04-08T03:46:14;100550.81;;;0.45;46.62
69980;BME280;57318;56.232;43.944;2023-04-08T03:48:39;100554.22;;;0.50;46.70
69980;BME280;57318;56.232;43.944;2023-04-08T03:51:05;100552.44;;;0.51;46.72
69980;BME280;57318;56.232;43.944;2023-04-08T03:53:31;100560.19;;;0.56;46.60
69980;BME280;57318;56.232;43.944;2023-04-08T03:55:58;100558.31;;;0.62;46.39
69980;BME280;57318;56.232;43.944;2023-04-08T03:58:24;100548.63;;;0.66;46.32
69980;BME280;57318;56.232;43.944;2023-04-08T04:00:50;100559.00;;;0.70;46.24
69980;BME280;57318;56.232;43.944;2023-04-08T04:03:15;100565.88;;;0.76;46.18
69980;BME280;57318;56.232;43.944;2023-04-08T04:05:41;100562.34;;;0.79;46.21
69980;BME280;57318;56.232;43.944;2023-04-08T04:08:07;100561.31;;;0.84;45.93
69980;BME280;57318;56.232;43.944;2023-04-08T04:10:34;100564.72;;;0.88;45.99
69980;BME280;57318;56.232;43.944;2023-04-08T04:13:00;100561.97;;;0.94;46.01
69980;BME280;57318;56.232;43.944;2023-04-08T04:15:26;100567.03;;;1.02;46.15
69980;BME280;57318;56.232;43.944;2023-04-08T04:17:52;100566.00;;;1.09;45.76
69980;BME280;57318;56.232;43.944;2023-04-08T04:20:18;100564.09;;;1.16;45.59
69980;BME280;57318;56.232;43.944;2023-04-08T04:22:44;100562.22;;;1.21;45.54
69980;BME280;57318;56.232;43.944;2023-04-08T04:25:10;100561.13;;;1.31;45.67
69980;BME280;57318;56.232;43.944;2023-04-08T04:27:35;100561.06;;;1.34;45.33
69980;BME280;57318;56.232;43.944;2023-04-08T04:30:01;100560.84;;;1.43;45.22
69980;BME280;57318;56.232;43.944;2023-04-08T04:32:29;100570.16;;;1.54;45.34
69980;BME280;57318;56.232;43.944;2023-04-08T04:34:54;100569.13;;;1.61;45.17
69980;BME280;57318;56.232;43.944;2023-04-08T04:37:20;100569.78;;;1.69;45.08
69980;BME280;57318;56.232;43.944;2023-04-08T04:39:46;100574.81;;;1.78;44.59
69980;BME280;57318;56.232;43.944;2023-04-08T04:42:11;100569.50;;;1.82;44.08
69980;BME280;57318;56.232;43.944;2023-04-08T04:44:37;100577.13;;;1.91;44.16
69980;BME280;57318;56.232;43.944;2023-04-08T04:47:03;100576.03;;;1.98;43.70
69980;BME280;57318;56.232;43.944;2023-04-08T04:49:28;100564.47;;;2.07;43.62
69980;BME280;57318;56.232;43.944;2023-04-08T04:51:54;100567.75;;;2.13;42.85
69980;BME280;57318;56.232;43.944;2023-04-08T04:54:20;100570.00;;;2.27;42.94
69980;BME280;57318;56.232;43.944;2023-04-08T04:56:45;100576.75;;;2.38;42.37
69980;BME280;57318;56.232;43.944;2023-04-08T04:59:11;100572.97;;;2.46;42.14
69980;BME280;57318;56.232;43.944;2023-04-08T05:01:37;100584.09;;;2.55;42.13
69980;BME280;57318;56.232;43.944;2023-04-08T05:04:05;100583.03;;;2.62;41.73
69980;BME280;57318;56.232;43.944;2023-04-08T05:06:31;100585.41;;;2.71;41.90
69980;BME280;57318;56.232;43.944;2023-04-08T05:08:57;100587.75;;;2.80;41.75
69980;BME280;57318;56.232;43.944;2023-04-08T05:11:23;100589.31;;;2.86;41.89
69980;BME280;57318;56.232;43.944;2023-04-08T05:13:49;100590.03;;;2.93;41.76
69980;BME280;57318;56.232;43.944;2023-04-08T05:16:14;100596.69;;;3.03;41.15
69980;BME280;57318;56.232;43.944;2023-04-08T05:18:41;100591.16;;;3.12;40.85
69980;BME280;57318;56.232;43.944;2023-04-08T05:21:07;100593.41;;;3.24;40.71
69980;BME280;57318;56.232;43.944;2023-04-08T05:23:33;100595.06;;;3.29;40.57
69980;BME280;57318;56.232;43.944;2023-04-08T05:26:00;100599.06;;;3.40;40.33
69980;BME280;57318;56.232;43.944;2023-04-08T05:28:25;100592.59;;;3.51;40.27
69980;BME280;57318;56.232;43.944;2023-04-08T05:30:52;100597.34;;;3.66;40.29
69980;BME280;57318;56.232;43.944;2023-04-08T05:33:18;100597.72;;;3.82;40.37
69980;BME280;57318;56.232;43.944;2023-04-08T05:35:44;100595.56;;;3.93;39.79
69980;BME280;57318;56.232;43.944;2023-04-08T05:38:10;100602.13;;;4.07;39.65
69980;BME280;57318;56.232;43.944;2023-04-08T05:40:36;100599.13;;;4.18;39.56
69980;BME280;57318;56.232;43.944;2023-04-08T05:43:02;100608.31;;;4.31;39.51
69980;BME280;57318;56.232;43.944;2023-04-08T05:45:28;100584.03;;;4.23;39.35
69980;BME280;57318;56.232;43.944;2023-04-08T05:47:54;100605.09;;;4.46;39.27
69980;BME280;57318;56.232;43.944;2023-04-08T05:50:19;100605.53;;;4.59;38.86
69980;BME280;57318;56.232;43.944;2023-04-08T05:52:48;100611.16;;;4.74;38.76
69980;BME280;57318;56.232;43.944;2023-04-08T05:55:13;100596.88;;;4.79;38.14
69980;BME280;57318;56.232;43.944;2023-04-08T05:57:40;100589.69;;;4.84;37.88
69980;BME280;57318;56.232;43.944;2023-04-08T06:00:07;100609.75;;;5.11;37.69
69980;BME280;57318;56.232;43.944;2023-04-08T06:02:34;100607.63;;;5.20;37.59
69980;BME280;57318;56.232;43.944;2023-04-08T06:05:01;100613.94;;;5.38;36.99
69980;BME280;57318;56.232;43.944;2023-04-08T06:07:27;100619.75;;;5.47;36.47
69980;BME280;57318;56.232;43.944;2023-04-08T06:09:52;100613.28;;;5.55;36.47
69980;BME280;57318;56.232;43.944;2023-04-08T06:12:18;100618.31;;;5.62;36.26
69980;BME280;57318;56.232;43.944;2023-04-08T06:14:43;100620.91;;;6.06;35.25
69980;BME280;57318;56.232;43.944;2023-04-08T06:17:09;100614.84;;;7.40;33.20
69980;BME280;57318;56.232;43.944;2023-04-08T06:19:35;100616.13;;;9.06;30.22
69980;BME280;57318;56.232;43.944;2023-04-08T06:22:01;100615.06;;;11.19;27.32
69980;BME280;57318;56.232;43.944;2023-04-08T06:24:27;100622.56;;;13.49;24.73
69980;BME280;57318;56.232;43.944;2023-04-08T06:26:54;100621.84;;;15.44;20.97
69980;BME280;57318;56.232;43.944;2023-04-08T06:29:21;100614.63;;;16.93;20.15
69980;BME280;57318;56.232;43.944;2023-04-08T06:31:47;100634.44;;;18.60;18.23
69980;BME280;57318;56.232;43.944;2023-04-08T06:34:13;100635.13;;;19.83;16.88
69980;BME280;57318;56.232;43.944;2023-04-08T06:36:39;100628.78;;;21.15;15.34
69980;BME280;57318;56.232;43.944;2023-04-08T06:39:04;100632.06;;;22.44;14.87
69980;BME280;57318;56.232;43.944;2023-04-08T06:41:31;100639.81;;;22.72;13.41
69980;BME280;57318;56.232;43.944;2023-04-08T06:43:56;100632.16;;;23.31;13.21
69980;BME280;57318;56.232;43.944;2023-04-08T06:46:22;100630.50;;;24.08;12.41
69980;BME280;57318;56.232;43.944;2023-04-08T06:48:47;100629.38;;;24.40;11.91
69980;BME280;57318;56.232;43.944;2023-04-08T06:51:13;100626.44;;;24.95;11.26
69980;BME280;57318;56.232;43.944;2023-04-08T06:53:39;100633.66;;;24.88;10.99
69980;BME280;57318;56.232;43.944;2023-04-08T06:56:04;100627.38;;;25.02;10.29
69980;BME280;57318;56.232;43.944;2023-04-08T06:58:30;100627.06;;;25.27;10.06
69980;BME280;57318;56.232;43.944;2023-04-08T07:00:58;100628.13;;;25.11;9.61
69980;BME280;57318;56.232;43.944;2023-04-08T07:03:24;100618.34;;;25.16;9.74
69980;BME280;57318;56.232;43.944;2023-04-08T07:05:49;100623.81;;;25.68;9.63
69980;BME280;57318;56.232;43.944;2023-04-08T07:08:15;100629.66;;;26.08;9.78
69980;BME280;57318;56.232;43.944;2023-04-08T07:10:41;100626.28;;;26.84;9.11
69980;BME280;57318;56.232;43.944;2023-04-08T07:13:06;100622.28;;;27.28;9.00
69980;BME280;57318;56.232;43.944;2023-04-08T07:15:32;100616.13;;;27.68;8.65
69980;BME280;57318;56.232;43.944;2023-04-08T07:17:58;100615.91;;;27.63;8.61
69980;BME280;57318;56.232;43.944;2023-04-08T07:20:24;100617.97;;;27.47;8.65
69980;BME280;57318;56.232;43.944;2023-04-08T07:22:51;100611.53;;;27.68;8.75
69980;BME280;57318;56.232;43.944;2023-04-08T07:25:16;100611.94;;;27.10;8.61
69980;BME280;57318;56.232;43.944;2023-04-08T07:27:42;100616.13;;;27.75;8.69
69980;BME280;57318;56.232;43.944;2023-04-08T07:30:08;100615.66;;;27.44;8.78
69980;BME280;57318;56.232;43.944;2023-04-08T07:32:34;100606.69;;;27.64;8.36
69980;BME280;57318;56.232;43.944;2023-04-08T07:35:01;100606.53;;;28.32;8.22
69980;BME280;57318;56.232;43.944;2023-04-08T07:37:28;100605.66;;;28.78;7.34
69980;BME280;57318;56.232;43.944;2023-04-08T07:39:54;100609.22;;;27.79;7.48
69980;BME280;57318;56.232;43.944;2023-04-08T07:42:19;100603.41;;;27.95;7.52
69980;BME280;57318;56.232;43.944;2023-04-08T07:44:46;100602.88;;;27.58;7.66
69980;BME280;57318;56.232;43.944;2023-04-08T07:47:11;100602.97;;;27.30;7.61
69980;BME280;57318;56.232;43.944;2023-04-08T07:49:37;100608.19;;;27.86;7.52
69980;BME280;57318;56.232;43.944;2023-04-08T07:52:04;100601.91;;;27.99;7.33
69980;BME280;57318;56.232;43.944;2023-04-08T07:54:31;100602.34;;;27.96;7.25
69980;BME280;57318;56.232;43.944;2023-04-08T07:56:59;100598.97;;;28.34;6.86
69980;BME280;57318;56.232;43.944;2023-04-08T07:59:24;100606.13;;;28.15;7.05
69980;BME280;57318;56.232;43.944;2023-04-08T08:01:50;100598.78;;;29.14;6.99
69980;BME280;57318;56.232;43.944;2023-04-08T08:04:19;100597.59;;;29.04;6.66
69980;BME280;57318;56.232;43.944;2023-04-08T08:06:45;100583.88;;;29.56;6.47
69980;BME280;57318;56.232;43.944;2023-04-08T08:09:11;100593.41;;;29.46;6.62
69980;BME280;57318;56.232;43.944;2023-04-08T08:11:38;100589.28;;;29.62;6.29
69980;BME280;57318;56.232;43.944;2023-04-08T08:14:03;100590.03;;;30.08;6.06
69980;BME280;57318;56.232;43.944;2023-04-08T08:16:30;100594.59;;;30.65;5.71
69980;BME280;57318;56.232;43.944;2023-04-08T08:18:59;100593.59;;;30.09;5.72
69980;BME280;57318;56.232;43.944;2023-04-08T08:21:24;100596.34;;;30.09;5.57
69980;BME280;57318;56.232;43.944;2023-04-08T08:23:51;100592.53;;;29.84;5.81
69980;BME280;57318;56.232;43.944;2023-04-08T08:26:17;100578.19;;;29.89;6.10
69980;BME280;57318;56.232;43.944;2023-04-08T08:28:43;100592.91;;;30.45;5.65
69980;BME280;57318;56.232;43.944;2023-04-08T08:31:09;100580.41;;;30.24;5.61
69980;BME280;57318;56.232;43.944;2023-04-08T08:33:34;100584.41;;;30.21;5.87
69980;BME280;57318;56.232;43.944;2023-04-08T08:36:00;100584.50;;;30.40;5.67
69980;BME280;57318;56.232;43.944;2023-04-08T08:38:26;100582.72;;;30.89;5.73
69980;BME280;57318;56.232;43.944;2023-04-08T08:40:55;100587.63;;;30.18;5.72
69980;BME280;57318;56.232;43.944;2023-04-08T08:43:26;100586.56;;;30.19;5.77
69980;BME280;57318;56.232;43.944;2023-04-08T08:45:52;100578.56;;;29.93;6.16
69980;BME280;57318;56.232;43.944;2023-04-08T08:48:18;100583.47;;;30.97;5.48
69980;BME280;57318;56.232;43.944;2023-04-08T08:50:45;100582.06;;;31.24;5.22
69980;BME280;57318;56.232;43.944;2023-04-08T08:53:11;100579.06;;;31.44;5.05
69980;BME280;57318;56.232;43.944;2023-04-08T08:55:37;100575.78;;;32.20;4.92
69980;BME280;57318;56.232;43.944;2023-04-08T08:58:07;100574.81;;;32.38;4.95
69980;BME280;57318;56.232;43.944;2023-04-08T09:00:40;100569.56;;;32.25;4.78
69980;BME280;57318;56.232;43.944;2023-04-08T09:03:19;100568.19;;;31.80;5.06
69980;BME280;57318;56.232;43.944;2023-04-08T09:05:52;100558.13;;;31.74;4.68
69980;BME280;57318;56.232;43.944;2023-04-08T09:10:51;100567.00;;;30.59;5.05
69980;BME280;57318;56.232;43.944;2023-04-08T09:13:17;100569.00;;;30.02;5.73
69980;BME280;57318;56.232;43.944;2023-04-08T09:16:01;100568.03;;;30.40;5.24
69980;BME280;57318;56.232;43.944;2023-04-08T09:18:32;100559.97;;;29.95;5.38
69980;BME280;57318;56.232;43.944;2023-04-08T09:21:02;100560.28;;;29.86;5.80
69980;BME280;57318;56.232;43.944;2023-04-08T09:23:40;100562.50;;;30.21;5.33
69980;BME280;57318;56.232;43.944;2023-04-08T09:26:10;100567.75;;;30.85;5.49
69980;BME280;57318;56.232;43.944;2023-04-08T09:28:37;100558.34;;;31.60;5.22
69980;BME280;57318;56.232;43.944;2023-04-08T09:31:33;100555.47;;;31.55;5.06
69980;BME280;57318;56.232;43.944;2023-04-08T09:34:12;100555.22;;;31.26;5.20
69980;BME280;57318;56.232;43.944;2023-04-08T09:36:39;100561.22;;;30.68;5.49
69980;BME280;57318;56.232;43.944;2023-04-08T09:39:05;100555.25;;;30.52;5.45
69980;BME280;57318;56.232;43.944;2023-04-08T09:41:36;100551.41;;;30.35;5.46
69980;BME280;57318;56.232;43.944;2023-04-08T09:44:04;100555.41;;;30.57;5.91
69980;BME280;57318;56.232;43.944;2023-04-08T09:46:39;100557.63;;;29.73;5.36
69980;BME280;57318;56.232;43.944;2023-04-08T09:49:12;100553.06;;;30.98;5.48
69980;BME280;57318;56.232;43.944;2023-04-08T09:51:53;100557.56;;;30.30;5.86
69980;BME280;57318;56.232;43.944;2023-04-08T09:54:31;100555.91;;;30.04;5.80
69980;BME280;57318;56.232;43.944;2023-04-08T09:57:04;100550.75;;;30.95;5.72
69980;BME280;57318;56.232;43.944;2023-04-08T09:59:34;100550.22;;;31.65;5.58
69980;BME280;57318;56.232;43.944;2023-04-08T10:02:06;100541.72;;;31.25;5.20
69980;BME280;57318;56.232;43.944;2023-04-08T10:04:40;100536.88;;;30.71;5.27
69980;BME280;57318;56.232;43.944;2023-04-08T10:07:07;100547.13;;;31.62;5.42
69980;BME280;57318;56.232;43.944;2023-04-08T10:09:33;100535.81;;;31.94;5.17
69980;BME280;57318;56.232;43.944;2023-04-08T10:12:01;100544.22;;;32.11;4.93
69980;BME280;57318;56.232;43.944;2023-04-08T10:14:27;100547.66;;;32.06;5.03
69980;BME280;57318;56.232;43.944;2023-04-08T10:19:38;100545.56;;;31.54;5.01
69980;BME280;57318;56.232;43.944;2023-04-08T10:27:40;100527.56;;;31.82;5.30
69980;BME280;57318;56.232;43.944;2023-04-08T10:32:51;100535.72;;;32.24;5.22
69980;BME280;57318;56.232;43.944;2023-04-08T10:35:16;100519.97;;;31.11;5.51
69980;BME280;57318;56.232;43.944;2023-04-08T10:37:42;100530.69;;;30.20;5.80
69980;BME280;57318;56.232;43.944;2023-04-08T10:40:19;100527.25;;;30.69;5.75
69980;BME280;57318;56.232;43.944;2023-04-08T10:42:44;100524.09;;;30.84;5.73
69980;BME280;57318;56.232;43.944;2023-04-08T10:45:10;100523.88;;;30.48;5.83
69980;BME280;57318;56.232;43.944;2023-04-08T10:47:41;100515.66;;;30.48;5.96
69980;BME280;57318;56.232;43.944;2023-04-08T10:50:16;100505.41;;;30.18;5.90
69980;BME280;57318;56.232;43.944;2023-04-08T10:52:50;100506.31;;;30.12;5.73
69980;BME280;57318;56.232;43.944;2023-04-08T10:55:22;100506.94;;;29.89;6.17
69980;BME280;57318;56.232;43.944;2023-04-08T10:57:49;100503.41;;;30.81;5.84
69980;BME280;57318;56.232;43.944;2023-04-08T11:00:31;100499.84;;;31.29;5.73
69980;BME280;57318;56.232;43.944;2023-04-08T11:03:02;100499.50;;;31.38;5.38
69980;BME280;57318;56.232;43.944;2023-04-08T11:05:28;100501.16;;;31.81;5.55
69980;BME280;57318;56.232;43.944;2023-04-08T11:07:53;100488.28;;;32.17;5.41
69980;BME280;57318;56.232;43.944;2023-04-08T11:10:20;100495.63;;;32.52;4.82
69980;BME280;57318;56.232;43.944;2023-04-08T11:12:46;100487.31;;;32.23;4.93
69980;BME280;57318;56.232;43.944;2023-04-08T11:15:12;100487.88;;;31.90;5.22
69980;BME280;57318;56.232;43.944;2023-04-08T11:17:39;100483.78;;;30.29;5.58
69980;BME280;57318;56.232;43.944;2023-04-08T11:20:05;100475.00;;;29.19;6.23
69980;BME280;57318;56.232;43.944;2023-04-08T11:22:32;100479.06;;;29.67;6.26
69980;BME280;57318;56.232;43.944;2023-04-08T11:24:59;100475.53;;;29.60;6.23
69980;BME280;57318;56.232;43.944;2023-04-08T11:27:26;100479.38;;;29.77;6.03
69980;BME280;57318;56.232;43.944;2023-04-08T11:29:55;100472.31;;;29.95;5.58
69980;BME280;57318;56.232;43.944;2023-04-08T11:32:21;100468.34;;;29.91;5.84
69980;BME280;57318;56.232;43.944;2023-04-08T11:34:52;100470.91;;;30.11;5.69
69980;BME280;57318;56.232;43.944;2023-04-08T11:37:17;100469.00;;;28.97;6.49
69980;BME280;57318;56.232;43.944;2023-04-08T11:39:43;100468.13;;;28.51;6.15
69980;BME280;57318;56.232;43.944;2023-04-08T11:42:28;100468.56;;;28.55;6.29
69980;BME280;57318;56.232;43.944;2023-04-08T11:44:54;100470.53;;;28.86;6.12
69980;BME280;57318;56.232;43.944;2023-04-08T11:47:20;100475.25;;;29.43;6.24
69980;BME280;57318;56.232;43.944;2023-04-08T11:49:46;100465.81;;;29.07;5.90
69980;BME280;57318;56.232;43.944;2023-04-08T11:52:12;100469.81;;;29.36;6.27
69980;BME280;57318;56.232;43.944;2023-04-08T11:54:41;100465.91;;;29.82;6.03
69980;BME280;57318;56.232;43.944;2023-04-08T11:57:07;100472.31;;;29.95;5.70
69980;BME280;57318;56.232;43.944;2023-04-08T11:59:36;100464.13;;;29.63;5.38
69980;BME280;57318;56.232;43.944;2023-04-08T12:02:02;100467.38;;;29.28;5.58
69980;BME280;57318;56.232;43.944;2023-04-08T12:04:27;100460.06;;;28.76;6.23
69980;BME280;57318;56.232;43.944;2023-04-08T12:06:54;100461.22;;;28.49;6.09
69980;BME280;57318;56.232;43.944;2023-04-08T12:09:20;100465.00;;;28.48;6.24
69980;BME280;57318;56.232;43.944;2023-04-08T12:11:46;100464.00;;;28.87;5.98
69980;BME280;57318;56.232;43.944;2023-04-08T12:14:12;100464.53;;;28.71;5.98
69980;BME280;57318;56.232;43.944;2023-04-08T12:16:37;100456.72;;;27.89;5.81
69980;BME280;57318;56.232;43.944;2023-04-08T12:19:03;100447.28;;;27.58;6.47
69980;BME280;57318;56.232;43.944;2023-04-08T12:21:28;100454.13;;;27.27;6.62
69980;BME280;57318;56.232;43.944;2023-04-08T12:23:54;100463.44;;;27.40;6.83
69980;BME280;57318;56.232;43.944;2023-04-08T12:26:20;100445.97;;;27.81;6.58
69980;BME280;57318;56.232;43.944;2023-04-08T12:28:46;100447.47;;;27.77;6.68
69980;BME280;57318;56.232;43.944;2023-04-08T12:31:11;100448.72;;;27.54;6.76
69980;BME280;57318;56.232;43.944;2023-04-08T12:33:37;100446.44;;;27.38;6.72
69980;BME280;57318;56.232;43.944;2023-04-08T12:36:03;100442.59;;;27.12;6.76
69980;BME280;57318;56.232;43.944;2023-04-08T12:38:28;100442.25;;;27.42;6.68
69980;BME280;57318;56.232;43.944;2023-04-08T12:40:54;100440.53;;;27.74;6.65
69980;BME280;57318;56.232;43.944;2023-04-08T12:43:20;100437.63;;;27.62;6.81
69980;BME280;57318;56.232;43.944;2023-04-08T12:45:46;100434.81;;;27.29;6.44
69980;BME280;57318;56.232;43.944;2023-04-08T12:48:13;100430.25;;;27.43;6.89
69980;BME280;57318;56.232;43.944;2023-04-08T12:50:39;100431.25;;;27.01;6.91
69980;BME280;57318;56.232;43.944;2023-04-08T12:53:04;100426.59;;;26.82;6.77
69980;BME280;57318;56.232;43.944;2023-04-08T12:55:31;100425.19;;;26.51;7.69
69980;BME280;57318;56.232;43.944;2023-04-08T12:57:57;100414.78;;;25.91;7.66
69980;BME280;57318;56.232;43.944;2023-04-08T13:00:22;100417.84;;;25.75;7.82
69980;BME280;57318;56.232;43.944;2023-04-08T13:02:48;100416.19;;;25.52;8.12
69980;BME280;57318;56.232;43.944;2023-04-08T13:05:14;100413.34;;;25.17;8.23